Time;durP1;ratioP1;P1;durP2;ratioP2;P2;SDS_P1;SDS_P2;PMS_P1;PMS_P2;Temp;Humidity;BMP_temperature;BMP_pressure;BME280_temperature;BME280_humidity;BME280_pressure;Samples;Min_cycle;Max_cycle;Signal;HPM_P1;HPM_P2
2021/11/26 00:00:15;;;;;;;27.52;9.57;;;6.20;99.90;;;6.78;80.04;100008.09;5049549;28;20215;-76
2021/11/26 00:02:42;;;;;;;22.30;9.38;;;6.20;99.90;;;6.71;80.16;100011.84;5027369;28;20201;-77
2021/11/26 00:05:11;;;;;;;24.45;9.50;;;6.10;99.90;;;6.69;80.27;100005.84;5036599;28;20211;-77
2021/11/26 00:07:38;;;;;;;27.23;9.18;;;6.10;99.90;;;6.74;80.54;100008.28;5045781;28;20211;-77
2021/11/26 00:10:08;;;;;;;23.38;9.52;;;6.20;99.90;;;6.78;80.30;100007.28;5042640;28;20287;-78
2021/11/26 00:12:34;;;;;;;26.13;9.90;;;6.20;99.90;;;6.75;80.14;100003.00;5031694;28;20200;-77
2021/11/26 00:15:13;;;;;;;27.45;10.27;;;6.20;99.90;;;6.76;80.42;100001.28;5054316;28;20192;-77
2021/11/26 00:17:48;;;;;;;24.80;9.00;;;6.10;99.90;;;6.76;80.32;99991.72;5060428;28;20266;-77
2021/11/26 00:20:17;;;;;;;24.02;9.35;;;6.20;99.90;;;6.76;80.27;99978.75;5052416;28;20262;-76
2021/11/26 00:22:43;;;;;;;22.40;10.02;;;6.20;99.90;;;6.74;80.17;99993.53;5052808;28;20201;-76
2021/11/26 00:25:12;;;;;;;29.95;9.57;;;6.10;99.90;;;6.66;80.40;99992.94;5052805;28;20193;-77
2021/11/26 00:27:39;;;;;;;22.88;8.82;;;6.10;99.90;;;6.63;80.39;99987.00;5049415;28;20194;-77
2021/11/26 00:30:09;;;;;;;23.52;9.05;;;6.10;99.90;;;6.63;80.57;99980.03;5032801;28;20215;-77
2021/11/26 00:32:36;;;;;;;31.65;9.85;;;6.10;99.90;;;6.67;80.63;99980.78;5043220;28;20193;-77
2021/11/26 00:35:05;;;;;;;20.58;8.07;;;6.10;99.90;;;6.71;80.39;99991.03;5039891;28;20557;-76
2021/11/26 00:37:32;;;;;;;26.38;8.95;;;6.10;99.90;;;6.72;80.28;99989.25;5031264;28;20185;-77
2021/11/26 00:39:59;;;;;;;25.75;8.90;;;6.10;99.90;;;6.67;80.33;99986.84;5033769;28;20208;-77
2021/11/26 00:42:27;;;;;;;23.05;9.23;;;6.10;99.90;;;6.63;80.34;99985.22;5035448;28;20204;-77
2021/11/26 00:44:54;;;;;;;26.08;8.98;;;6.10;99.90;;;6.62;80.47;99988.75;5053749;28;20181;-77
2021/11/26 00:47:21;;;;;;;31.20;9.85;;;6.00;99.90;;;6.65;80.59;99977.41;5054517;28;20184;-76
2021/11/26 00:49:48;;;;;;;23.00;8.45;;;6.10;99.90;;;6.66;80.35;99979.09;5050016;28;20288;-77
2021/11/26 00:52:15;;;;;;;22.92;8.65;;;6.10;99.90;;;6.67;80.22;99979.03;5035843;28;20239;-77
2021/11/26 00:54:42;;;;;;;26.52;9.63;;;6.10;99.90;;;6.66;80.06;99979.94;5043309;28;20184;-77
2021/11/26 00:57:09;;;;;;;22.90;8.68;;;6.10;99.90;;;6.59;80.12;99978.44;5055197;28;20188;-77
2021/11/26 00:59:39;;;;;;;26.70;9.82;;;6.00;99.90;;;6.58;80.46;99976.72;5055061;28;20212;-77
2021/11/26 01:02:07;;;;;;;23.52;7.50;;;6.00;99.90;;;6.57;80.25;99967.25;5036065;28;20196;-77
2021/11/26 01:04:34;;;;;;;20.30;8.68;;;6.00;99.90;;;6.58;80.29;99968.94;5027102;28;20191;-77
2021/11/26 01:07:01;;;;;;;23.10;8.93;;;6.00;99.90;;;6.58;80.21;99965.50;5053111;28;20197;-77
2021/11/26 01:09:28;;;;;;;22.38;7.82;;;6.00;99.90;;;6.60;79.96;99968.91;5034786;28;20299;-77
2021/11/26 01:11:55;;;;;;;22.77;7.97;;;6.00;99.90;;;6.64;80.19;99962.69;5040014;28;20231;-77
2021/11/26 01:14:23;;;;;;;24.98;8.63;;;6.00;99.90;;;6.65;79.94;99957.44;5043967;28;20194;-76
2021/11/26 01:16:54;;;;;;;23.33;8.57;;;6.00;99.90;;;6.66;79.94;99959.16;5039024;28;20188;-77
2021/11/26 01:19:22;;;;;;;24.02;8.70;;;6.00;99.90;;;6.66;79.85;99951.34;5047620;28;20215;-77
2021/11/26 01:21:49;;;;;;;26.48;8.30;;;6.00;99.90;;;6.66;79.85;99953.09;5046942;28;20184;-77
2021/11/26 01:24:17;;;;;;;26.55;8.38;;;6.10;99.90;;;6.70;79.96;99959.91;5057409;28;20216;-76
2021/11/26 01:26:43;;;;;;;23.50;7.55;;;6.10;99.90;;;6.67;79.83;99953.03;5033290;28;20185;-76
2021/11/26 01:29:10;;;;;;;23.95;7.78;;;6.00;99.90;;;6.67;79.59;99950.44;5051879;28;20205;-77
2021/11/26 01:31:38;;;;;;;23.58;8.43;;;6.00;99.90;;;6.66;79.63;99956.56;5060102;28;20180;-77
2021/11/26 01:34:08;;;;;;;20.85;7.97;;;6.00;99.90;;;6.66;79.50;99943.56;5055048;28;20191;-77
2021/11/26 01:36:35;;;;;;;22.63;8.23;;;6.10;99.90;;;6.71;79.41;99944.25;5049673;28;20272;-77
2021/11/26 01:39:03;;;;;;;20.55;7.80;;;6.10;99.90;;;6.75;79.28;99948.44;5030540;28;20268;-77
2021/11/26 01:41:29;;;;;;;24.60;7.80;;;6.20;99.90;;;6.77;79.20;99941.44;5051765;28;20187;-77
2021/11/26 01:43:56;;;;;;;21.77;7.45;;;6.20;99.90;;;6.79;79.50;99939.63;5033127;28;20212;-77
2021/11/26 01:46:24;;;;;;;19.50;7.22;;;6.20;99.90;;;6.81;79.37;99929.16;5032700;28;20714;-77
2021/11/26 01:48:53;;;;;;;22.80;8.05;;;6.20;99.90;;;6.77;79.00;99930.16;5049882;28;20686;-77
2021/11/26 01:51:21;;;;;;;24.80;7.78;;;6.10;99.90;;;6.73;79.35;99932.03;5034594;28;20196;-78
2021/11/26 01:53:49;;;;;;;21.83;7.85;;;6.10;99.90;;;6.71;79.17;99923.47;5029111;28;20280;-77
2021/11/26 01:56:17;;;;;;;22.23;8.85;;;6.10;99.90;;;6.71;79.31;99923.47;5044073;28;20189;-77
2021/11/26 01:58:44;;;;;;;21.60;7.97;;;6.10;99.90;;;6.71;79.20;99928.66;5048371;28;20185;-77
2021/11/26 02:01:12;;;;;;;18.73;6.95;;;6.10;99.90;;;6.68;79.38;99922.72;5028271;28;20181;-76
2021/11/26 02:03:39;;;;;;;23.60;8.48;;;6.10;99.90;;;6.67;79.42;99923.59;5050215;28;20218;-77
2021/11/26 02:06:06;;;;;;;19.40;7.70;;;6.10;99.90;;;6.66;79.48;99917.56;5042932;28;22178;-78
2021/11/26 02:08:34;;;;;;;23.02;6.85;;;6.10;99.90;;;6.67;79.63;99913.19;5049480;28;20193;-78
2021/11/26 02:11:01;;;;;;;20.63;8.57;;;6.10;99.90;;;6.64;79.32;99919.38;5049187;28;20711;-77
2021/11/26 02:13:28;;;;;;;20.95;7.53;;;6.10;99.90;;;6.62;79.52;99912.50;5018530;28;20193;-77
2021/11/26 02:15:55;;;;;;;20.05;7.60;;;6.10;99.90;;;6.69;79.64;99909.66;5025517;28;20189;-77
2021/11/26 02:18:22;;;;;;;18.75;7.28;;;6.10;99.90;;;6.67;79.21;99898.47;5026952;28;20192;-77
2021/11/26 02:20:50;;;;;;;20.55;8.35;;;6.10;99.90;;;6.62;79.45;99892.56;5031453;28;20208;-76
2021/11/26 02:23:17;;;;;;;25.20;8.15;;;6.10;99.90;;;6.59;79.64;99895.28;5032359;28;20574;-77
2021/11/26 02:25:44;;;;;;;23.63;8.40;;;6.00;99.90;;;6.58;79.95;99888.38;5031868;28;20189;-77
2021/11/26 02:28:17;;;;;;;22.13;7.50;;;6.00;99.90;;;6.58;79.85;99880.56;5047805;28;20185;-77
2021/11/26 02:30:45;;;;;;;18.35;7.28;;;6.00;99.90;;;6.61;79.82;99885.69;5044114;28;20764;-77
2021/11/26 02:33:15;;;;;;;23.02;8.25;;;6.00;99.90;;;6.59;79.63;99878.84;5048053;28;20545;-77
2021/11/26 02:35:51;;;;;;;28.15;8.02;;;6.00;99.90;;;6.59;79.92;99871.91;5048933;28;20200;-77
2021/11/26 02:38:21;;;;;;;22.08;7.72;;;6.00;99.90;;;6.64;79.57;99867.38;5030594;28;20192;-77
2021/11/26 02:40:49;;;;;;;25.00;8.27;;;6.00;99.90;;;6.70;79.54;99859.34;5019786;28;20708;-76
2021/11/26 02:43:17;;;;;;;24.20;7.63;;;6.10;99.90;;;6.72;79.43;99846.31;5021387;28;20289;-77
2021/11/26 02:45:47;;;;;;;24.63;9.07;;;6.10;99.90;;;6.67;79.43;99849.06;5049435;28;20180;-78
2021/11/26 02:48:15;;;;;;;24.80;8.40;;;6.10;99.90;;;6.63;79.65;99854.44;5030972;28;20684;-77
2021/11/26 02:50:45;;;;;;;26.73;8.48;;;6.00;99.90;;;6.58;79.78;99849.41;5030431;28;20289;-76
2021/11/26 02:53:12;;;;;;;23.58;8.40;;;6.00;99.90;;;6.57;79.89;99855.50;5049077;28;21214;-77
2021/11/26 02:55:40;;;;;;;22.40;8.80;;;6.00;99.90;;;6.58;80.02;99843.38;5031032;28;20185;-77
2021/11/26 02:58:08;;;;;;;24.88;8.35;;;6.00;99.90;;;6.60;79.91;99850.19;5022393;28;20196;-77
2021/11/26 03:00:37;;;;;;;22.88;8.05;;;6.00;99.90;;;6.64;79.84;99845.72;5031737;28;20207;-77
2021/11/26 03:03:04;;;;;;;24.75;9.02;;;6.00;99.90;;;6.63;79.75;99847.47;5031766;28;20227;-77
2021/11/26 03:05:32;;;;;;;19.90;8.02;;;6.00;99.90;;;6.61;79.60;99841.50;5019561;28;20203;-77
2021/11/26 03:07:59;;;;;;;26.35;8.45;;;6.00;99.90;;;6.56;79.91;99840.81;5018285;28;20193;-76
2021/11/26 03:10:28;;;;;;;24.95;8.82;;;6.00;99.90;;;6.58;80.05;99832.97;5048767;28;20204;-77
2021/11/26 03:13:00;;;;;;;29.10;9.23;;;6.00;99.90;;;6.55;79.68;99828.72;5028136;28;20192;-76
2021/11/26 03:15:32;;;;;;;25.20;8.63;;;6.00;99.90;;;6.58;80.17;99828.59;5020478;28;20192;-77
2021/11/26 03:18:00;;;;;;;28.88;10.18;;;6.00;99.90;;;6.62;80.09;99832.78;5027995;28;20192;-77
2021/11/26 03:20:29;;;;;;;24.05;8.43;;;6.00;99.90;;;6.62;80.12;99825.00;5033382;28;20223;-77
2021/11/26 03:22:58;;;;;;;23.73;8.90;;;6.00;99.90;;;6.62;80.24;99822.41;5050446;28;20204;-77
2021/11/26 03:25:26;;;;;;;24.90;8.80;;;6.00;99.90;;;6.67;80.16;99825.69;5033721;28;20192;-76
2021/11/26 03:27:53;;;;;;;22.40;8.18;;;6.00;99.90;;;6.68;80.00;99818.75;5051112;28;20181;-77
2021/11/26 03:30:23;;;;;;;24.08;9.18;;;6.00;99.90;;;6.69;80.01;99820.44;5051632;28;20211;-77
2021/11/26 03:32:51;;;;;;;22.52;8.82;;;6.10;99.90;;;6.71;80.07;99816.88;5033929;28;20272;-77
2021/11/26 03:35:20;;;;;;;23.52;9.25;;;6.10;99.90;;;6.73;80.09;99820.25;5051466;28;20181;-76
2021/11/26 03:37:49;;;;;;;24.25;8.38;;;6.10;99.90;;;6.77;79.90;99816.66;5044853;28;20197;-77
2021/11/26 03:40:19;;;;;;;24.75;8.73;;;6.10;99.90;;;6.78;79.94;99812.31;5017364;28;20209;-77
2021/11/26 03:42:46;;;;;;;24.38;8.60;;;6.10;99.90;;;6.81;79.90;99815.63;5037593;28;20275;-76
2021/11/26 03:45:15;;;;;;;26.45;8.60;;;6.20;99.90;;;6.85;79.92;99809.41;5054056;28;20653;-77
2021/11/26 03:47:46;;;;;;;25.48;8.75;;;6.20;99.90;;;6.88;79.70;99811.06;5024562;28;20193;-77
2021/11/26 03:50:14;;;;;;;27.75;8.73;;;6.20;99.90;;;6.84;79.55;99812.91;5030601;28;20215;-77
2021/11/26 03:52:44;;;;;;;25.90;7.75;;;6.20;99.90;;;6.85;79.65;99814.59;5066062;28;20176;-77
2021/11/26 03:55:17;;;;;;;27.13;9.23;;;6.20;99.90;;;6.77;79.75;99811.44;5057050;28;20188;-77
2021/11/26 03:57:45;;;;;;;22.52;8.05;;;6.10;99.90;;;6.72;79.80;99802.97;5056667;28;20195;-77
2021/11/26 04:00:14;;;;;;;26.98;7.40;;;6.10;99.90;;;6.72;79.88;99805.56;5074839;28;20578;-77
2021/11/26 04:02:43;;;;;;;25.52;8.07;;;6.10;99.90;;;6.75;79.94;99802.84;5056731;28;20200;-77
2021/11/26 04:05:10;;;;;;;23.88;8.70;;;6.20;99.90;;;6.79;79.79;99801.00;5056452;28;20218;-76
2021/11/26 04:07:37;;;;;;;24.40;8.80;;;6.20;99.90;;;6.82;79.54;99795.66;5056278;28;20612;-78
2021/11/26 04:10:07;;;;;;;26.50;8.73;;;6.20;99.90;;;6.85;79.57;99796.41;5056790;28;20212;-77
2021/11/26 04:12:34;;;;;;;22.65;8.90;;;6.20;99.90;;;6.89;79.71;99795.41;5039219;28;20557;-77
2021/11/26 04:15:06;;;;;;;25.15;8.80;;;6.30;99.90;;;6.94;79.80;99790.88;5034636;28;20244;-75
2021/11/26 04:17:33;;;;;;;24.17;8.25;;;6.30;99.90;;;6.95;79.45;99792.56;5030609;28;20657;-76
2021/11/26 04:20:03;;;;;;;24.17;7.93;;;6.30;99.90;;;6.91;79.38;99788.41;5053810;28;20217;-77
2021/11/26 04:22:29;;;;;;;23.83;8.02;;;6.20;99.90;;;6.85;79.15;99786.00;5044400;28;20184;-77
2021/11/26 04:24:56;;;;;;;22.02;7.60;;;6.20;99.90;;;6.77;79.22;99788.06;5039439;28;20209;-77
2021/11/26 04:27:26;;;;;;;20.77;7.25;;;6.20;99.90;;;6.71;79.31;99783.09;5016413;28;20186;-77
2021/11/26 04:29:55;;;;;;;22.75;7.38;;;6.10;99.90;;;6.70;79.29;99781.38;5016121;28;20205;-77
2021/11/26 04:32:22;;;;;;;24.30;7.65;;;6.10;99.90;;;6.70;78.90;99775.34;5015909;28;20181;-77
2021/11/26 04:34:49;;;;;;;20.02;7.07;;;6.10;99.90;;;6.71;78.89;99780.50;5036994;28;20644;-77
2021/11/26 04:37:17;;;;;;;23.23;7.28;;;6.10;99.90;;;6.71;78.67;99777.91;5065460;28;20188;-77
2021/11/26 04:39:46;;;;;;;24.42;7.15;;;6.10;99.90;;;6.68;78.95;99777.97;5055469;28;20680;-77
2021/11/26 04:42:13;;;;;;;20.30;6.70;;;6.10;99.90;;;6.65;78.88;99775.50;5055717;28;20192;-77
2021/11/26 04:44:39;;;;;;;21.42;7.35;;;6.10;99.90;;;6.67;78.86;99770.25;5055260;28;20672;-77
2021/11/26 04:47:06;;;;;;;21.48;7.00;;;6.00;99.90;;;6.72;79.00;99760.53;5073300;28;20188;-77
2021/11/26 04:49:33;;;;;;;19.58;6.95;;;6.10;99.90;;;6.74;78.95;99761.31;5044795;28;20593;-77
2021/11/26 04:52:00;;;;;;;25.05;7.93;;;6.10;99.90;;;6.74;78.66;99759.56;5031887;28;20599;-77
2021/11/26 04:54:29;;;;;;;20.00;7.15;;;6.10;99.90;;;6.74;78.95;99751.78;5025780;28;20586;-77
2021/11/26 04:56:57;;;;;;;21.92;7.38;;;6.10;99.90;;;6.78;78.56;99758.53;5051736;28;20213;-77
2021/11/26 04:59:24;;;;;;;19.17;7.10;;;6.20;99.90;;;6.82;78.73;99748.88;5029526;28;20200;-78
2021/11/26 05:01:51;;;;;;;19.50;7.15;;;6.20;99.90;;;6.83;78.81;99755.78;5053733;28;20181;-77
2021/11/26 05:04:18;;;;;;;21.10;7.28;;;6.20;99.90;;;6.84;78.67;99753.13;5055283;28;20330;-77
2021/11/26 05:06:45;;;;;;;23.20;7.05;;;6.20;99.90;;;6.88;78.73;99749.47;5041957;28;20197;-77
2021/11/26 05:09:13;;;;;;;22.65;8.07;;;6.20;99.90;;;6.93;78.53;99751.94;5025861;28;20567;-77
2021/11/26 05:11:41;;;;;;;22.33;8.55;;;6.30;99.90;;;6.98;78.36;99752.59;5032146;28;20558;-76
2021/11/26 05:14:09;;;;;;;25.52;7.05;;;6.30;99.90;;;6.93;78.29;99742.34;5029563;28;20909;-77
2021/11/26 05:16:39;;;;;;;21.85;6.72;;;6.30;99.90;;;6.86;78.49;99743.53;5024869;28;20192;-77
2021/11/26 05:19:06;;;;;;;21.63;6.55;;;6.20;99.90;;;6.77;78.53;99743.84;5032903;28;20209;-77
2021/11/26 05:21:33;;;;;;;20.40;6.47;;;6.20;99.90;;;6.74;78.56;99733.59;5028382;28;20196;-77
2021/11/26 05:23:59;;;;;;;22.10;6.97;;;6.20;99.90;;;6.77;78.59;99735.19;5033275;28;20205;-77
2021/11/26 05:26:26;;;;;;;19.13;6.53;;;6.10;99.90;;;6.74;78.66;99720.59;5031853;28;20258;-77
2021/11/26 05:28:54;;;;;;;19.83;6.60;;;6.10;99.90;;;6.73;78.33;99721.47;5047085;28;20190;-76
2021/11/26 05:31:22;;;;;;;21.00;6.55;;;6.10;99.90;;;6.72;78.32;99722.38;5031539;28;20188;-77
2021/11/26 05:33:49;;;;;;;20.85;6.90;;;6.10;99.90;;;6.75;78.60;99721.44;5047655;28;20212;-76
2021/11/26 05:36:17;;;;;;;15.65;5.43;;;6.10;99.90;;;6.75;78.59;99709.28;5047620;28;20255;-76
2021/11/26 05:38:44;;;;;;;22.92;7.07;;;6.20;99.90;;;6.77;78.11;99715.25;5050266;28;20204;-77
2021/11/26 05:41:10;;;;;;;22.30;6.35;;;6.10;99.90;;;6.78;78.44;99710.91;5026349;28;20185;-76
2021/11/26 05:43:37;;;;;;;20.20;6.30;;;6.20;99.90;;;6.79;78.61;99716.06;5051897;28;20180;-77
2021/11/26 05:46:05;;;;;;;22.27;6.60;;;6.20;99.90;;;6.83;78.40;99704.63;5051457;28;20192;-77
2021/11/26 05:48:32;;;;;;;19.67;6.47;;;6.20;99.90;;;6.86;78.49;99707.13;5044957;28;20176;-77
2021/11/26 05:50:59;;;;;;;24.83;6.97;;;6.20;99.90;;;6.92;78.27;99703.41;5031852;28;20208;-77
2021/11/26 05:53:26;;;;;;;20.17;6.15;;;6.30;99.90;;;6.94;78.26;99697.25;5048069;28;20611;-76
2021/11/26 05:55:53;;;;;;;20.80;6.88;;;6.30;99.90;;;6.97;78.23;99694.53;5046565;28;20215;-77
2021/11/26 05:58:20;;;;;;;26.75;7.18;;;6.30;99.90;;;7.04;78.48;99690.78;5028462;28;20193;-77
2021/11/26 06:00:46;;;;;;;21.42;7.32;;;6.30;99.90;;;7.12;78.10;99691.31;5033797;28;20200;-77
2021/11/26 06:03:14;;;;;;;21.42;6.80;;;6.40;99.90;;;7.11;78.06;99687.03;5034614;28;20575;-77
2021/11/26 06:05:41;;;;;;;23.67;7.18;;;6.40;99.90;;;7.13;77.95;99692.19;5040652;28;20204;-77
2021/11/26 06:08:08;;;;;;;22.58;7.32;;;6.40;99.90;;;7.13;78.04;99690.41;5045339;28;20199;-76
2021/11/26 06:10:36;;;;;;;21.48;8.07;;;6.50;99.90;;;7.11;78.06;99694.84;5053920;28;20216;-77
2021/11/26 06:13:03;;;;;;;20.90;7.22;;;6.40;99.90;;;7.06;78.41;99701.97;5054257;28;20188;-75
2021/11/26 06:15:30;;;;;;;22.85;7.20;;;6.40;99.90;;;7.01;78.29;99698.72;5035890;28;20198;-77
2021/11/26 06:17:58;;;;;;;26.50;8.05;;;6.30;99.90;;;6.94;78.65;99692.06;5051784;28;20230;-76
2021/11/26 06:20:27;;;;;;;24.00;8.48;;;6.30;99.90;;;6.95;78.98;99688.53;5051714;28;20292;-77
2021/11/26 06:22:55;;;;;;;23.15;7.65;;;6.30;99.90;;;6.99;79.03;99695.31;5034023;28;20705;-76
2021/11/26 06:25:24;;;;;;;22.52;7.20;;;6.30;99.90;;;6.98;78.96;99698.00;5052075;28;20211;-76
2021/11/26 06:27:52;;;;;;;20.35;7.22;;;6.30;99.90;;;6.94;78.82;99693.81;5033692;28;20585;-76
2021/11/26 06:30:22;;;;;;;22.60;7.30;;;6.30;99.90;;;6.87;78.91;99698.41;5050885;28;20731;-77
2021/11/26 06:32:50;;;;;;;23.63;7.63;;;6.20;99.90;;;6.84;79.01;99695.94;5033261;28;20180;-77
2021/11/26 06:35:20;;;;;;;20.88;7.15;;;6.20;99.90;;;6.84;78.86;99690.72;5048013;28;20188;-76
2021/11/26 06:37:50;;;;;;;20.02;6.72;;;6.20;99.90;;;6.82;78.66;99678.69;5053493;28;20305;-76
2021/11/26 06:40:19;;;;;;;18.95;6.72;;;6.20;99.90;;;6.85;78.78;99689.81;5041814;28;20299;-76
2021/11/26 06:42:47;;;;;;;19.85;7.18;;;6.20;99.90;;;6.85;78.50;99684.59;5032213;28;20221;-75
2021/11/26 06:45:14;;;;;;;18.73;6.53;;;6.20;99.90;;;6.83;78.21;99677.78;5047854;28;20204;-76
2021/11/26 06:47:42;;;;;;;22.35;6.38;;;6.20;99.90;;;6.80;78.17;99681.34;5034542;28;20592;-77
2021/11/26 06:50:12;;;;;;;17.20;6.55;;;6.20;99.90;;;6.76;78.27;99672.00;5033613;28;20215;-77
2021/11/26 06:52:39;;;;;;;17.05;6.13;;;6.10;99.90;;;6.73;77.84;99681.66;5031807;28;20665;-77
2021/11/26 06:55:10;;;;;;;21.08;6.68;;;6.10;99.90;;;6.72;77.71;99678.19;5056433;28;20189;-76
2021/11/26 06:57:38;;;;;;;22.70;6.03;;;6.10;99.90;;;6.73;77.65;99669.50;5041059;28;20197;-76
2021/11/26 07:00:08;;;;;;;19.65;6.47;;;6.10;99.90;;;6.78;77.69;99675.34;5044120;28;20256;-77
2021/11/26 07:02:35;;;;;;;20.30;6.53;;;6.10;99.90;;;6.80;77.28;99670.94;5054405;28;20200;-76
2021/11/26 07:05:02;;;;;;;20.67;6.05;;;6.10;99.90;;;6.82;77.29;99666.53;5064932;28;20219;-76
2021/11/26 07:07:29;;;;;;;18.48;5.82;;;6.20;99.90;;;6.83;77.03;99663.03;5040669;28;20238;-76
2021/11/26 07:09:56;;;;;;;22.17;6.47;;;6.20;99.90;;;6.85;76.92;99658.59;5060568;28;20602;-76
2021/11/26 07:12:24;;;;;;;19.92;6.43;;;6.20;99.90;;;6.86;77.12;99670.72;5054568;28;20325;-75
2021/11/26 07:14:51;;;;;;;17.40;6.05;;;6.20;99.90;;;6.87;77.12;99669.81;5062507;28;20177;-77
2021/11/26 07:17:18;;;;;;;18.55;6.18;;;6.20;99.90;;;6.81;76.87;99675.25;5065465;28;20188;-75
2021/11/26 07:19:47;;;;;;;20.83;5.95;;;6.20;99.90;;;6.81;76.75;99667.47;5048969;28;20694;-77
2021/11/26 07:22:15;;;;;;;20.88;6.30;;;6.20;99.90;;;6.83;76.65;99665.63;5049130;28;20198;-77
2021/11/26 07:24:42;;;;;;;19.98;5.80;;;6.20;99.90;;;6.85;77.02;99676.81;5045203;28;20716;-76
2021/11/26 07:27:09;;;;;;;16.58;6.45;;;6.20;99.90;;;6.92;76.68;99665.25;5052558;28;20204;-76
2021/11/26 07:29:37;;;;;;;19.45;5.90;;;6.30;99.90;;;7.00;76.49;99665.81;5049740;28;20220;-76
2021/11/26 07:32:06;;;;;;;16.80;5.82;;;6.30;99.90;;;7.01;75.86;99662.31;5034504;28;20193;-76
2021/11/26 07:34:32;;;;;;;21.88;6.35;;;6.40;99.90;;;6.95;76.13;99657.34;5047312;28;20272;-77
2021/11/26 07:36:59;;;;;;;15.20;5.70;;;6.30;99.90;;;6.92;75.94;99651.41;5055054;28;20217;-77
2021/11/26 07:39:32;;;;;;;17.80;6.10;;;6.30;99.90;;;6.96;76.17;99648.66;5034451;28;20205;-77
2021/11/26 07:41:59;;;;;;;19.92;6.45;;;6.40;99.90;;;6.96;75.80;99647.78;5049090;28;20258;-76
2021/11/26 07:44:26;;;;;;;21.08;6.22;;;6.40;99.90;;;6.94;75.75;99645.25;5031207;28;20227;-76
2021/11/26 07:46:55;;;;;;;20.17;5.97;;;6.40;99.90;;;6.91;75.75;99649.72;5034129;28;20188;-77
2021/11/26 07:49:24;;;;;;;18.77;5.65;;;6.40;99.90;;;6.90;75.96;99650.66;5042690;28;20216;-76
2021/11/26 07:51:51;;;;;;;17.17;5.38;;;6.30;99.90;;;6.92;75.72;99644.47;5032910;28;20193;-76
2021/11/26 07:54:17;;;;;;;15.90;5.70;;;6.30;99.90;;;6.96;75.82;99646.03;5047162;28;20198;-77
2021/11/26 07:56:44;;;;;;;17.85;5.75;;;6.40;99.90;;;6.93;75.60;99638.34;5028767;28;20193;-77
2021/11/26 07:59:11;;;;;;;21.80;5.63;;;6.40;99.90;;;6.96;75.55;99643.44;5028430;28;20561;-76
2021/11/26 08:01:38;;;;;;;22.08;5.75;;;6.40;99.90;;;7.00;75.55;99628.56;5049252;28;20642;-76
2021/11/26 08:04:06;;;;;;;19.95;5.65;;;6.40;99.90;;;7.10;75.70;99630.72;5031271;28;20744;-76
2021/11/26 08:06:33;;;;;;;18.80;5.53;;;6.50;99.90;;;7.15;75.15;99627.94;5048565;28;20192;-75
2021/11/26 08:09:00;;;;;;;19.17;5.72;;;6.60;99.90;;;7.16;75.20;99620.06;5072118;28;20172;-76
2021/11/26 08:11:27;;;;;;;18.88;5.10;;;6.60;99.90;;;7.19;74.89;99632.09;5051852;28;20190;-76
2021/11/26 08:13:55;;;;;;;18.13;5.50;;;6.60;99.90;;;7.15;75.15;99633.16;5028934;28;20547;-76
2021/11/26 08:16:22;;;;;;;18.00;5.15;;;6.60;99.90;;;7.16;75.01;99630.47;5060027;28;20199;-75
2021/11/26 08:18:49;;;;;;;17.85;5.22;;;6.60;99.90;;;7.23;74.77;99620.66;5040356;28;20192;-76
2021/11/26 08:21:17;;;;;;;14.30;4.65;;;6.60;99.90;;;7.28;74.63;99616.09;5054197;28;20196;-75
2021/11/26 08:23:44;;;;;;;19.92;5.60;;;6.70;99.90;;;7.27;74.46;99614.41;5032647;28;20188;-76
2021/11/26 08:26:11;;;;;;;16.60;5.70;;;6.70;99.90;;;7.32;74.41;99608.09;5053908;28;20197;-77
2021/11/26 08:28:39;;;;;;;16.83;5.25;;;6.70;99.90;;;7.33;74.58;99611.56;5058207;28;20185;-76
2021/11/26 08:31:05;;;;;;;14.18;5.22;;;6.70;99.90;;;7.32;74.47;99602.91;5060043;28;20224;-76
2021/11/26 08:33:32;;;;;;;21.88;5.50;;;6.70;99.90;;;7.32;74.42;99607.25;5040317;28;20583;-76
2021/11/26 08:36:00;;;;;;;18.15;5.78;;;6.80;99.90;;;7.31;74.24;99602.97;5053787;28;20547;-77
2021/11/26 08:38:28;;;;;;;18.67;5.88;;;6.80;99.90;;;7.34;74.45;99605.44;5058548;28;20259;-76
2021/11/26 08:40:55;;;;;;;17.02;5.13;;;6.90;99.90;;;7.43;74.28;99602.44;5031935;28;20280;-75
2021/11/26 08:43:22;;;;;;;16.70;5.72;;;7.00;99.90;;;7.55;74.38;99596.72;5049432;28;20189;-76
2021/11/26 08:45:49;;;;;;;18.88;6.10;;;7.10;99.90;;;7.68;74.18;99595.25;5064058;28;20253;-76
2021/11/26 08:48:17;;;;;;;15.75;5.70;;;7.20;99.90;;;7.76;73.87;99595.75;5041877;28;20314;-75
2021/11/26 08:50:45;;;;;;;20.40;5.80;;;7.30;99.90;;;7.72;73.37;99593.38;5035889;28;20205;-75
2021/11/26 08:53:13;;;;;;;16.02;5.50;;;7.30;99.90;;;7.64;73.55;99585.88;5041182;28;20739;-74
2021/11/26 08:55:46;;;;;;;21.05;6.45;;;7.30;99.90;;;7.58;73.72;99589.59;5038557;28;20199;-75
2021/11/26 08:58:14;;;;;;;21.35;6.28;;;7.20;99.90;;;7.58;73.84;99592.19;5038264;28;20185;-76
2021/11/26 09:00:42;;;;;;;19.92;6.07;;;7.20;99.90;;;7.62;73.67;99585.94;5057185;28;20546;-76
2021/11/26 09:03:10;;;;;;;17.95;5.35;;;7.20;99.90;;;7.61;73.95;99586.03;5050720;28;20200;-76
2021/11/26 09:05:37;;;;;;;15.88;5.35;;;7.20;99.90;;;7.65;73.54;99578.00;5037580;28;20219;-76
2021/11/26 09:08:06;;;;;;;19.00;6.22;;;7.20;99.90;;;7.64;73.61;99572.88;5037240;28;20193;-76
2021/11/26 09:10:37;;;;;;;16.50;5.18;;;7.20;99.90;;;7.67;73.24;99580.53;5053255;28;20699;-76
2021/11/26 09:13:07;;;;;;;19.10;6.60;;;7.20;99.90;;;7.67;72.97;99579.72;5060432;28;20255;-75
2021/11/26 09:15:36;;;;;;;23.67;5.72;;;7.20;99.90;;;7.68;73.19;99570.97;5032305;28;20201;-76
2021/11/26 09:18:03;;;;;;;18.33;6.00;;;7.20;99.90;;;7.68;73.06;99572.66;5059829;28;20201;-75
2021/11/26 09:20:30;;;;;;;20.50;6.10;;;7.20;99.90;;;7.72;73.00;99573.38;5054172;28;20205;-76
2021/11/26 09:22:57;;;;;;;25.02;6.50;;;7.30;99.90;;;7.75;73.01;99573.25;5052248;28;20220;-76
2021/11/26 09:25:24;;;;;;;17.55;5.90;;;7.30;99.90;;;7.79;72.38;99569.56;5031889;28;20201;-77
2021/11/26 09:27:51;;;;;;;21.85;6.07;;;7.40;99.90;;;7.80;72.60;99575.63;5039019;28;20197;-74
2021/11/26 09:30:22;;;;;;;22.80;6.07;;;7.40;99.90;;;7.81;72.31;99574.72;5066687;28;20228;-76
2021/11/26 09:32:49;;;;;;;17.98;6.40;;;7.40;99.90;;;7.87;72.26;99564.88;5052173;28;20189;-75
2021/11/26 09:35:16;;;;;;;18.48;6.72;;;7.50;99.90;;;7.89;72.08;99559.63;5044009;28;20189;-76
2021/11/26 09:37:43;;;;;;;22.40;6.10;;;7.50;99.90;;;7.82;72.13;99560.81;5031587;28;20177;-77
2021/11/26 09:40:12;;;;;;;16.75;6.22;;;7.40;99.90;;;7.84;71.99;99552.00;5036989;28;20209;-76
2021/11/26 09:42:42;;;;;;;19.55;6.43;;;7.40;99.90;;;7.93;71.79;99545.53;5034850;28;20353;-77
2021/11/26 09:45:11;;;;;;;22.73;6.78;;;7.50;99.90;;;7.97;71.65;99547.09;5038522;28;20221;-76
2021/11/26 09:47:39;;;;;;;19.48;7.05;;;7.50;99.90;;;7.96;71.49;99541.03;5049559;28;20192;-76
2021/11/26 09:50:07;;;;;;;18.30;6.47;;;7.50;99.90;;;7.91;71.44;99539.53;5048594;28;20213;-76
2021/11/26 09:52:38;;;;;;;19.83;7.00;;;7.40;99.90;;;7.91;71.80;99536.94;5036363;28;20200;-76
2021/11/26 09:55:08;;;;;;;19.90;7.18;;;7.40;99.90;;;7.98;71.41;99538.34;5038476;28;21335;-76
2021/11/26 09:57:35;;;;;;;24.15;6.97;;;7.50;99.90;;;8.05;71.24;99534.53;5043362;28;20216;-76
2021/11/26 10:00:04;;;;;;;24.27;6.88;;;7.60;99.90;;;8.13;71.08;99522.00;5027402;28;20220;-76
2021/11/26 10:02:31;;;;;;;19.02;6.72;;;7.70;99.90;;;8.18;70.66;99520.88;5040090;28;20201;-77
2021/11/26 10:05:04;;;;;;;17.95;5.65;;;7.80;99.90;;;8.21;70.24;99517.25;5015351;28;20185;-76
2021/11/26 10:07:31;;;;;;;20.65;7.07;;;7.70;99.90;;;8.24;69.93;99517.16;5031130;28;20205;-77
2021/11/26 10:10:08;;;;;;;21.08;6.40;;;7.80;99.90;;;8.20;69.42;99510.38;5027187;28;20258;-75
2021/11/26 10:12:35;;;;;;;17.73;6.43;;;7.70;99.90;;;8.19;69.65;99506.91;5024474;28;20193;-76
2021/11/26 10:15:05;;;;;;;19.15;7.38;;;7.80;99.90;;;8.19;69.67;99504.31;5033559;28;20609;-77
2021/11/26 10:17:32;;;;;;;15.88;6.10;;;7.80;99.90;;;8.22;69.58;99508.53;5037336;28;20191;-75
2021/11/26 10:20:07;;;;;;;17.75;6.35;;;7.90;99.90;;;8.34;69.16;99500.19;5044387;28;20692;-75
2021/11/26 10:22:38;;;;;;;19.42;6.13;;;7.90;99.90;;;8.40;68.81;99499.88;5028956;28;20192;-76
2021/11/26 10:25:10;;;;;;;17.10;6.65;;;7.90;99.90;;;8.44;68.60;99488.38;5028397;28;20197;-76
2021/11/26 10:27:42;;;;;;;19.95;6.45;;;8.00;99.90;;;8.39;68.42;99490.38;5034204;28;20181;-77